sensor_id;sensor_type;location;lat;lon;timestamp;P1;P2;P0
74880;PMS5003;63427;49.654;6.596;2023-01-04T00:01:21;9;9;
74880;PMS5003;63427;49.654;6.596;2023-01-04T00:03:47;8;8;
74880;PMS5003;63427;49.654;6.596;2023-01-04T00:06:13;10;10;
74880;PMS5003;63427;49.654;6.596;2023-01-04T00:08:38;14;13;
74880;PMS5003;63427;49.654;6.596;2023-01-04T00:11:04;12;11;
74880;PMS5003;63427;49.654;6.596;2023-01-04T00:13:29;9;9;
74880;PMS5003;63427;49.654;6.596;2023-01-04T00:15:55;10;10;
74880;PMS5003;63427;49.654;6.596;2023-01-04T00:18:21;9;9;
74880;PMS5003;63427;49.654;6.596;2023-01-04T00:20:46;8;8;
74880;PMS5003;63427;49.654;6.596;2023-01-04T00:23:12;6;6;
74880;PMS5003;63427;49.654;6.596;2023-01-04T00:25:37;9;9;
74880;PMS5003;63427;49.654;6.596;2023-01-04T00:28:03;7;7;
74880;PMS5003;63427;49.654;6.596;2023-01-04T00:30:29;8;8;
74880;PMS5003;63427;49.654;6.596;2023-01-04T00:32:55;11;11;
74880;PMS5003;63427;49.654;6.596;2023-01-04T00:35:20;9;9;
74880;PMS5003;63427;49.654;6.596;2023-01-04T00:37:45;7;7;
74880;PMS5003;63427;49.654;6.596;2023-01-04T00:40:11;10;10;
74880;PMS5003;63427;49.654;6.596;2023-01-04T00:42:37;8;8;
74880;PMS5003;63427;49.654;6.596;2023-01-04T00:45:02;9;9;
74880;PMS5003;63427;49.654;6.596;2023-01-04T00:47:28;9;9;
74880;PMS5003;63427;49.654;6.596;2023-01-04T00:49:53;9;8;
74880;PMS5003;63427;49.654;6.596;2023-01-04T00:52:19;9;9;
74880;PMS5003;63427;49.654;6.596;2023-01-04T00:54:44;8;8;
74880;PMS5003;63427;49.654;6.596;2023-01-04T00:57:10;9;9;
74880;PMS5003;63427;49.654;6.596;2023-01-04T00:59:36;8;7;
74880;PMS5003;63427;49.654;6.596;2023-01-04T01:02:01;8;8;
74880;PMS5003;63427;49.654;6.596;2023-01-04T01:04:27;9;9;
74880;PMS5003;63427;49.654;6.596;2023-01-04T01:06:53;8;7;
74880;PMS5003;63427;49.654;6.596;2023-01-04T01:09:18;11;10;
74880;PMS5003;63427;49.654;6.596;2023-01-04T01:11:44;7;7;
74880;PMS5003;63427;49.654;6.596;2023-01-04T01:14:11;9;8;
74880;PMS5003;63427;49.654;6.596;2023-01-04T01:16:35;9;8;
74880;PMS5003;63427;49.654;6.596;2023-01-04T01:19:01;8;8;
74880;PMS5003;63427;49.654;6.596;2023-01-04T01:21:26;7;7;
74880;PMS5003;63427;49.654;6.596;2023-01-04T01:23:53;9;8;
74880;PMS5003;63427;49.654;6.596;2023-01-04T01:26:18;9;9;
74880;PMS5003;63427;49.654;6.596;2023-01-04T01:28:43;9;8;
74880;PMS5003;63427;49.654;6.596;2023-01-04T01:31:10;9;8;
74880;PMS5003;63427;49.654;6.596;2023-01-04T01:33:35;8;7;
74880;PMS5003;63427;49.654;6.596;2023-01-04T01:36:00;7;7;
74880;PMS5003;63427;49.654;6.596;2023-01-04T01:38:25;9;8;
74880;PMS5003;63427;49.654;6.596;2023-01-04T01:40:51;10;10;
74880;PMS5003;63427;49.654;6.596;2023-01-04T01:43:17;9;8;
74880;PMS5003;63427;49.654;6.596;2023-01-04T01:45:42;10;9;
74880;PMS5003;63427;49.654;6.596;2023-01-04T01:48:10;9;8;
74880;PMS5003;63427;49.654;6.596;2023-01-04T01:50:35;7;7;
74880;PMS5003;63427;49.654;6.596;2023-01-04T01:52:59;9;9;
74880;PMS5003;63427;49.654;6.596;2023-01-04T01:55:25;10;9;
74880;PMS5003;63427;49.654;6.596;2023-01-04T01:57:50;7;7;
74880;PMS5003;63427;49.654;6.596;2023-01-04T02:00:16;8;8;
74880;PMS5003;63427;49.654;6.596;2023-01-04T02:02:44;8;8;
74880;PMS5003;63427;49.654;6.596;2023-01-04T02:05:07;8;8;
74880;PMS5003;63427;49.654;6.596;2023-01-04T02:07:33;11;10;
74880;PMS5003;63427;49.654;6.596;2023-01-04T02:09:58;8;7;
74880;PMS5003;63427;49.654;6.596;2023-01-04T02:12:24;8;8;
74880;PMS5003;63427;49.654;6.596;2023-01-04T02:14:50;11;11;
74880;PMS5003;63427;49.654;6.596;2023-01-04T02:17:16;8;7;
74880;PMS5003;63427;49.654;6.596;2023-01-04T02:19:47;7;7;
74880;PMS5003;63427;49.654;6.596;2023-01-04T02:24:33;8;8;
74880;PMS5003;63427;49.654;6.596;2023-01-04T02:27:03;7;7;
74880;PMS5003;63427;49.654;6.596;2023-01-04T02:31:49;7;7;
74880;PMS5003;63427;49.654;6.596;2023-01-04T02:34:15;7;7;
74880;PMS5003;63427;49.654;6.596;2023-01-04T02:36:41;7;6;
74880;PMS5003;63427;49.654;6.596;2023-01-04T02:39:09;5;5;
74880;PMS5003;63427;49.654;6.596;2023-01-04T02:41:31;6;6;
74880;PMS5003;63427;49.654;6.596;2023-01-04T02:43:58;6;6;
74880;PMS5003;63427;49.654;6.596;2023-01-04T02:46:23;5;5;
74880;PMS5003;63427;49.654;6.596;2023-01-04T02:48:48;5;4;
74880;PMS5003;63427;49.654;6.596;2023-01-04T02:51:23;6;6;
74880;PMS5003;63427;49.654;6.596;2023-01-04T02:53:39;6;5;
74880;PMS5003;63427;49.654;6.596;2023-01-04T02:56:07;8;8;
74880;PMS5003;63427;49.654;6.596;2023-01-04T02:58:35;6;5;
74880;PMS5003;63427;49.654;6.596;2023-01-04T03:00:57;5;5;
74880;PMS5003;63427;49.654;6.596;2023-01-04T03:03:22;6;6;
74880;PMS5003;63427;49.654;6.596;2023-01-04T03:05:49;5;5;
74880;PMS5003;63427;49.654;6.596;2023-01-04T03:08:14;5;5;
74880;PMS5003;63427;49.654;6.596;2023-01-04T03:10:39;6;6;
74880;PMS5003;63427;49.654;6.596;2023-01-04T03:13:05;5;5;
74880;PMS5003;63427;49.654;6.596;2023-01-04T03:15:30;5;5;
74880;PMS5003;63427;49.654;6.596;2023-01-04T03:17:56;6;5;
74880;PMS5003;63427;49.654;6.596;2023-01-04T03:20:21;6;6;
74880;PMS5003;63427;49.654;6.596;2023-01-04T03:22:49;7;7;
74880;PMS5003;63427;49.654;6.596;2023-01-04T03:25:12;9;8;
74880;PMS5003;63427;49.654;6.596;2023-01-04T03:27:38;6;6;
74880;PMS5003;63427;49.654;6.596;2023-01-04T03:30:05;8;7;
74880;PMS5003;63427;49.654;6.596;2023-01-04T03:32:30;6;6;
74880;PMS5003;63427;49.654;6.596;2023-01-04T03:34:55;5;5;
74880;PMS5003;63427;49.654;6.596;2023-01-04T03:37:21;10;7;
74880;PMS5003;63427;49.654;6.596;2023-01-04T03:39:50;3;3;
74880;PMS5003;63427;49.654;6.596;2023-01-04T03:42:13;4;4;
74880;PMS5003;63427;49.654;6.596;2023-01-04T03:44:40;5;5;
74880;PMS5003;63427;49.654;6.596;2023-01-04T03:47:04;8;5;
74880;PMS5003;63427;49.654;6.596;2023-01-04T03:49:29;3;3;
74880;PMS5003;63427;49.654;6.596;2023-01-04T03:51:55;4;4;
74880;PMS5003;63427;49.654;6.596;2023-01-04T03:54:20;7;6;
74880;PMS5003;63427;49.654;6.596;2023-01-04T03:56:46;4;4;
74880;PMS5003;63427;49.654;6.596;2023-01-04T03:59:11;4;4;
74880;PMS5003;63427;49.654;6.596;2023-01-04T04:01:36;4;4;
74880;PMS5003;63427;49.654;6.596;2023-01-04T04:04:02;6;6;
74880;PMS5003;63427;49.654;6.596;2023-01-04T04:06:28;6;5;
74880;PMS5003;63427;49.654;6.596;2023-01-04T04:08:53;4;4;
74880;PMS5003;63427;49.654;6.596;2023-01-04T04:11:19;4;4;
74880;PMS5003;63427;49.654;6.596;2023-01-04T04:13:44;7;6;
74880;PMS5003;63427;49.654;6.596;2023-01-04T04:16:10;6;5;
74880;PMS5003;63427;49.654;6.596;2023-01-04T04:18:35;6;6;
74880;PMS5003;63427;49.654;6.596;2023-01-04T04:21:01;5;5;
74880;PMS5003;63427;49.654;6.596;2023-01-04T04:23:27;5;5;
74880;PMS5003;63427;49.654;6.596;2023-01-04T04:25:52;4;4;
74880;PMS5003;63427;49.654;6.596;2023-01-04T04:28:18;4;4;
74880;PMS5003;63427;49.654;6.596;2023-01-04T04:30:44;4;4;
74880;PMS5003;63427;49.654;6.596;2023-01-04T04:33:09;6;5;
74880;PMS5003;63427;49.654;6.596;2023-01-04T04:35:35;5;4;
74880;PMS5003;63427;49.654;6.596;2023-01-04T04:38:00;6;5;
74880;PMS5003;63427;49.654;6.596;2023-01-04T04:40:26;3;3;
74880;PMS5003;63427;49.654;6.596;2023-01-04T04:42:52;4;4;
74880;PMS5003;63427;49.654;6.596;2023-01-04T04:45:17;5;5;
74880;PMS5003;63427;49.654;6.596;2023-01-04T04:47:43;3;3;
74880;PMS5003;63427;49.654;6.596;2023-01-04T04:50:09;5;4;
74880;PMS5003;63427;49.654;6.596;2023-01-04T04:52:34;5;5;
74880;PMS5003;63427;49.654;6.596;2023-01-04T04:55:00;3;3;
74880;PMS5003;63427;49.654;6.596;2023-01-04T04:57:25;3;3;
74880;PMS5003;63427;49.654;6.596;2023-01-04T04:59:51;4;3;
74880;PMS5003;63427;49.654;6.596;2023-01-04T05:02:17;5;4;
74880;PMS5003;63427;49.654;6.596;2023-01-04T05:04:42;3;3;
74880;PMS5003;63427;49.654;6.596;2023-01-04T05:07:08;3;3;
74880;PMS5003;63427;49.654;6.596;2023-01-04T05:09:33;3;3;
74880;PMS5003;63427;49.654;6.596;2023-01-04T05:11:59;3;3;
74880;PMS5003;63427;49.654;6.596;2023-01-04T05:14:25;2;2;
74880;PMS5003;63427;49.654;6.596;2023-01-04T05:16:50;3;3;
74880;PMS5003;63427;49.654;6.596;2023-01-04T05:19:16;3;3;
74880;PMS5003;63427;49.654;6.596;2023-01-04T05:21:42;4;3;
74880;PMS5003;63427;49.654;6.596;2023-01-04T05:24:08;4;2;
74880;PMS5003;63427;49.654;6.596;2023-01-04T05:26:33;4;3;
74880;PMS5003;63427;49.654;6.596;2023-01-04T05:28:59;2;2;
74880;PMS5003;63427;49.654;6.596;2023-01-04T05:31:24;2;2;
74880;PMS5003;63427;49.654;6.596;2023-01-04T05:33:50;2;2;
74880;PMS5003;63427;49.654;6.596;2023-01-04T05:36:15;2;2;
74880;PMS5003;63427;49.654;6.596;2023-01-04T05:38:41;2;2;
74880;PMS5003;63427;49.654;6.596;2023-01-04T05:41:07;3;3;
74880;PMS5003;63427;49.654;6.596;2023-01-04T05:43:32;1;1;
74880;PMS5003;63427;49.654;6.596;2023-01-04T05:45:58;3;2;
74880;PMS5003;63427;49.654;6.596;2023-01-04T05:48:24;3;2;
74880;PMS5003;63427;49.654;6.596;2023-01-04T05:50:49;3;3;
74880;PMS5003;63427;49.654;6.596;2023-01-04T05:53:15;3;3;
74880;PMS5003;63427;49.654;6.596;2023-01-04T05:55:41;1;1;
74880;PMS5003;63427;49.654;6.596;2023-01-04T05:58:06;3;2;
74880;PMS5003;63427;49.654;6.596;2023-01-04T06:00:32;3;3;
74880;PMS5003;63427;49.654;6.596;2023-01-04T06:02:57;3;3;
74880;PMS5003;63427;49.654;6.596;2023-01-04T06:05:24;3;3;
74880;PMS5003;63427;49.654;6.596;2023-01-04T06:07:48;3;2;
74880;PMS5003;63427;49.654;6.596;2023-01-04T06:10:14;2;2;
74880;PMS5003;63427;49.654;6.596;2023-01-04T06:12:40;3;3;
74880;PMS5003;63427;49.654;6.596;2023-01-04T06:15:06;2;2;
74880;PMS5003;63427;49.654;6.596;2023-01-04T06:17:31;2;2;
74880;PMS5003;63427;49.654;6.596;2023-01-04T06:19:57;1;1;
74880;PMS5003;63427;49.654;6.596;2023-01-04T06:22:23;2;2;
74880;PMS5003;63427;49.654;6.596;2023-01-04T06:24:48;5;4;
74880;PMS5003;63427;49.654;6.596;2023-01-04T06:27:14;1;1;
74880;PMS5003;63427;49.654;6.596;2023-01-04T06:29:39;1;1;
74880;PMS5003;63427;49.654;6.596;2023-01-04T06:32:05;2;2;
74880;PMS5003;63427;49.654;6.596;2023-01-04T06:34:31;1;1;
74880;PMS5003;63427;49.654;6.596;2023-01-04T06:36:56;2;2;
74880;PMS5003;63427;49.654;6.596;2023-01-04T06:39:22;2;2;
74880;PMS5003;63427;49.654;6.596;2023-01-04T06:41:47;2;1;
74880;PMS5003;63427;49.654;6.596;2023-01-04T06:44:13;1;1;
74880;PMS5003;63427;49.654;6.596;2023-01-04T06:46:39;2;2;
74880;PMS5003;63427;49.654;6.596;2023-01-04T06:49:04;2;2;
74880;PMS5003;63427;49.654;6.596;2023-01-04T06:51:30;2;2;
74880;PMS5003;63427;49.654;6.596;2023-01-04T06:53:55;2;2;
74880;PMS5003;63427;49.654;6.596;2023-01-04T06:56:21;2;2;
74880;PMS5003;63427;49.654;6.596;2023-01-04T06:58:47;2;2;
74880;PMS5003;63427;49.654;6.596;2023-01-04T07:01:12;4;3;
74880;PMS5003;63427;49.654;6.596;2023-01-04T07:03:38;2;2;
74880;PMS5003;63427;49.654;6.596;2023-01-04T07:06:04;4;4;
74880;PMS5003;63427;49.654;6.596;2023-01-04T07:08:30;3;3;
74880;PMS5003;63427;49.654;6.596;2023-01-04T07:10:55;3;3;
74880;PMS5003;63427;49.654;6.596;2023-01-04T07:13:21;5;5;
74880;PMS5003;63427;49.654;6.596;2023-01-04T07:15:46;3;3;
74880;PMS5003;63427;49.654;6.596;2023-01-04T07:18:12;4;4;
74880;PMS5003;63427;49.654;6.596;2023-01-04T07:20:38;4;4;
74880;PMS5003;63427;49.654;6.596;2023-01-04T07:23:03;4;4;
74880;PMS5003;63427;49.654;6.596;2023-01-04T07:25:29;5;5;
74880;PMS5003;63427;49.654;6.596;2023-01-04T07:27:54;5;5;
74880;PMS5003;63427;49.654;6.596;2023-01-04T07:30:21;5;5;
74880;PMS5003;63427;49.654;6.596;2023-01-04T07:32:46;4;4;
74880;PMS5003;63427;49.654;6.596;2023-01-04T07:35:11;4;4;
74880;PMS5003;63427;49.654;6.596;2023-01-04T07:37:37;4;4;
74880;PMS5003;63427;49.654;6.596;2023-01-04T07:40:03;4;4;
74880;PMS5003;63427;49.654;6.596;2023-01-04T07:42:28;3;3;
74880;PMS5003;63427;49.654;6.596;2023-01-04T07:44:54;4;3;
74880;PMS5003;63427;49.654;6.596;2023-01-04T07:47:20;3;3;
74880;PMS5003;63427;49.654;6.596;2023-01-04T07:49:45;4;4;
74880;PMS5003;63427;49.654;6.596;2023-01-04T07:52:11;3;3;
74880;PMS5003;63427;49.654;6.596;2023-01-04T07:54:36;4;4;
74880;PMS5003;63427;49.654;6.596;2023-01-04T07:57:02;3;3;
74880;PMS5003;63427;49.654;6.596;2023-01-04T07:59:27;3;3;
74880;PMS5003;63427;49.654;6.596;2023-01-04T08:01:53;5;5;
74880;PMS5003;63427;49.654;6.596;2023-01-04T08:04:20;5;3;
74880;PMS5003;63427;49.654;6.596;2023-01-04T08:06:44;4;4;
74880;PMS5003;63427;49.654;6.596;2023-01-04T08:09:10;5;4;
74880;PMS5003;63427;49.654;6.596;2023-01-04T08:11:36;3;3;
74880;PMS5003;63427;49.654;6.596;2023-01-04T08:14:01;3;3;
74880;PMS5003;63427;49.654;6.596;2023-01-04T08:16:27;3;3;
74880;PMS5003;63427;49.654;6.596;2023-01-04T08:18:52;2;2;
74880;PMS5003;63427;49.654;6.596;2023-01-04T08:21:18;4;4;
74880;PMS5003;63427;49.654;6.596;2023-01-04T08:23:43;3;3;
74880;PMS5003;63427;49.654;6.596;2023-01-04T08:26:11;3;3;
74880;PMS5003;63427;49.654;6.596;2023-01-04T08:28:35;4;4;
74880;PMS5003;63427;49.654;6.596;2023-01-04T08:31:02;4;3;
74880;PMS5003;63427;49.654;6.596;2023-01-04T08:33:26;5;5;
74880;PMS5003;63427;49.654;6.596;2023-01-04T08:35:51;4;4;
74880;PMS5003;63427;49.654;6.596;2023-01-04T08:38:17;5;5;
74880;PMS5003;63427;49.654;6.596;2023-01-04T08:40:42;6;6;
74880;PMS5003;63427;49.654;6.596;2023-01-04T08:43:08;4;4;
74880;PMS5003;63427;49.654;6.596;2023-01-04T08:45:33;4;4;
74880;PMS5003;63427;49.654;6.596;2023-01-04T08:47:59;5;5;
74880;PMS5003;63427;49.654;6.596;2023-01-04T08:50:25;5;5;
74880;PMS5003;63427;49.654;6.596;2023-01-04T08:52:50;5;4;
74880;PMS5003;63427;49.654;6.596;2023-01-04T08:55:16;5;5;
74880;PMS5003;63427;49.654;6.596;2023-01-04T08:57:41;5;5;
74880;PMS5003;63427;49.654;6.596;2023-01-04T09:00:08;5;5;
74880;PMS5003;63427;49.654;6.596;2023-01-04T09:02:32;4;4;
74880;PMS5003;63427;49.654;6.596;2023-01-04T09:04:58;5;5;
74880;PMS5003;63427;49.654;6.596;2023-01-04T09:07:24;4;4;
74880;PMS5003;63427;49.654;6.596;2023-01-04T09:09:49;6;5;
74880;PMS5003;63427;49.654;6.596;2023-01-04T09:12:15;5;5;
74880;PMS5003;63427;49.654;6.596;2023-01-04T09:14:40;5;5;
74880;PMS5003;63427;49.654;6.596;2023-01-04T09:17:06;5;5;
74880;PMS5003;63427;49.654;6.596;2023-01-04T09:19:32;6;6;
74880;PMS5003;63427;49.654;6.596;2023-01-04T09:21:57;5;5;
74880;PMS5003;63427;49.654;6.596;2023-01-04T09:24:23;5;4;
74880;PMS5003;63427;49.654;6.596;2023-01-04T09:26:48;5;5;
74880;PMS5003;63427;49.654;6.596;2023-01-04T09:29:14;5;5;
74880;PMS5003;63427;49.654;6.596;2023-01-04T09:31:40;7;7;
74880;PMS5003;63427;49.654;6.596;2023-01-04T09:34:05;4;4;
74880;PMS5003;63427;49.654;6.596;2023-01-04T09:36:31;4;4;
74880;PMS5003;63427;49.654;6.596;2023-01-04T09:38:56;5;5;
74880;PMS5003;63427;49.654;6.596;2023-01-04T09:41:23;5;5;
74880;PMS5003;63427;49.654;6.596;2023-01-04T09:43:48;6;6;
74880;PMS5003;63427;49.654;6.596;2023-01-04T09:46:15;5;5;
74880;PMS5003;63427;49.654;6.596;2023-01-04T09:48:39;6;6;
74880;PMS5003;63427;49.654;6.596;2023-01-04T09:51:04;6;6;
74880;PMS5003;63427;49.654;6.596;2023-01-04T09:53:30;4;4;
74880;PMS5003;63427;49.654;6.596;2023-01-04T09:55:58;6;6;
74880;PMS5003;63427;49.654;6.596;2023-01-04T09:58:22;5;5;
74880;PMS5003;63427;49.654;6.596;2023-01-04T10:00:48;6;6;
74880;PMS5003;63427;49.654;6.596;2023-01-04T10:03:12;5;5;
74880;PMS5003;63427;49.654;6.596;2023-01-04T10:05:38;6;6;
74880;PMS5003;63427;49.654;6.596;2023-01-04T10:08:04;4;4;
74880;PMS5003;63427;49.654;6.596;2023-01-04T10:10:35;5;4;
74880;PMS5003;63427;49.654;6.596;2023-01-04T10:12:56;4;4;
74880;PMS5003;63427;49.654;6.596;2023-01-04T10:15:22;7;6;
74880;PMS5003;63427;49.654;6.596;2023-01-04T10:17:50;6;5;
74880;PMS5003;63427;49.654;6.596;2023-01-04T10:22:39;6;5;
74880;PMS5003;63427;49.654;6.596;2023-01-04T10:25:06;6;6;
74880;PMS5003;63427;49.654;6.596;2023-01-04T10:27:30;4;4;
74880;PMS5003;63427;49.654;6.596;2023-01-04T10:29:56;3;3;
74880;PMS5003;63427;49.654;6.596;2023-01-04T10:32:21;4;4;
74880;PMS5003;63427;49.654;6.596;2023-01-04T10:34:45;3;3;
74880;PMS5003;63427;49.654;6.596;2023-01-04T10:37:11;4;4;
74880;PMS5003;63427;49.654;6.596;2023-01-04T10:39:35;4;4;
74880;PMS5003;63427;49.654;6.596;2023-01-04T10:42:05;5;5;
74880;PMS5003;63427;49.654;6.596;2023-01-04T10:44:27;6;6;
74880;PMS5003;63427;49.654;6.596;2023-01-04T10:46:56;5;5;
74880;PMS5003;63427;49.654;6.596;2023-01-04T10:49:20;4;4;
74880;PMS5003;63427;49.654;6.596;2023-01-04T10:51:44;5;5;
74880;PMS5003;63427;49.654;6.596;2023-01-04T10:54:11;5;5;
74880;PMS5003;63427;49.654;6.596;2023-01-04T10:56:35;5;4;
74880;PMS5003;63427;49.654;6.596;2023-01-04T10:59:01;5;5;
74880;PMS5003;63427;49.654;6.596;2023-01-04T11:01:27;5;5;
74880;PMS5003;63427;49.654;6.596;2023-01-04T11:03:51;5;4;
74880;PMS5003;63427;49.654;6.596;2023-01-04T11:06:17;4;4;
74880;PMS5003;63427;49.654;6.596;2023-01-04T11:08:43;4;4;
74880;PMS5003;63427;49.654;6.596;2023-01-04T11:11:09;5;5;
74880;PMS5003;63427;49.654;6.596;2023-01-04T11:13:33;5;4;
74880;PMS5003;63427;49.654;6.596;2023-01-04T11:15:58;4;4;
74880;PMS5003;63427;49.654;6.596;2023-01-04T11:18:24;5;5;
74880;PMS5003;63427;49.654;6.596;2023-01-04T11:20:49;5;5;
74880;PMS5003;63427;49.654;6.596;2023-01-04T11:23:16;3;3;
74880;PMS5003;63427;49.654;6.596;2023-01-04T11:25:42;4;4;
74880;PMS5003;63427;49.654;6.596;2023-01-04T11:28:08;4;4;
74880;PMS5003;63427;49.654;6.596;2023-01-04T11:30:34;3;3;
74880;PMS5003;63427;49.654;6.596;2023-01-04T11:32:59;4;3;
74880;PMS5003;63427;49.654;6.596;2023-01-04T11:35:36;4;4;
74880;PMS5003;63427;49.654;6.596;2023-01-04T11:37:49;2;2;
74880;PMS5003;63427;49.654;6.596;2023-01-04T11:40:21;3;3;
74880;PMS5003;63427;49.654;6.596;2023-01-04T11:42:39;3;3;
74880;PMS5003;63427;49.654;6.596;2023-01-04T11:45:08;3;3;
74880;PMS5003;63427;49.654;6.596;2023-01-04T11:47:30;4;3;
74880;PMS5003;63427;49.654;6.596;2023-01-04T11:49:56;3;3;
74880;PMS5003;63427;49.654;6.596;2023-01-04T11:52:27;4;4;
74880;PMS5003;63427;49.654;6.596;2023-01-04T11:54:47;4;4;
74880;PMS5003;63427;49.654;6.596;2023-01-04T11:57:16;4;4;
74880;PMS5003;63427;49.654;6.596;2023-01-04T11:59:38;3;3;
74880;PMS5003;63427;49.654;6.596;2023-01-04T12:02:14;2;2;
74880;PMS5003;63427;49.654;6.596;2023-01-04T12:04:29;3;3;
74880;PMS5003;63427;49.654;6.596;2023-01-04T12:06:55;3;3;
74880;PMS5003;63427;49.654;6.596;2023-01-04T12:09:20;3;3;
74880;PMS5003;63427;49.654;6.596;2023-01-04T12:11:47;3;3;
74880;PMS5003;63427;49.654;6.596;2023-01-04T12:14:17;3;3;
74880;PMS5003;63427;49.654;6.596;2023-01-04T12:16:41;2;1;
74880;PMS5003;63427;49.654;6.596;2023-01-04T12:19:02;3;3;
74880;PMS5003;63427;49.654;6.596;2023-01-04T12:21:30;3;3;
74880;PMS5003;63427;49.654;6.596;2023-01-04T12:23:53;7;7;
74880;PMS5003;63427;49.654;6.596;2023-01-04T12:26:19;3;2;
74880;PMS5003;63427;49.654;6.596;2023-01-04T12:28:45;5;5;
74880;PMS5003;63427;49.654;6.596;2023-01-04T12:33:36;4;4;
74880;PMS5003;63427;49.654;6.596;2023-01-04T12:36:01;4;4;
74880;PMS5003;63427;49.654;6.596;2023-01-04T12:40:52;4;3;
74880;PMS5003;63427;49.654;6.596;2023-01-04T12:43:22;3;3;
74880;PMS5003;63427;49.654;6.596;2023-01-04T12:45:43;4;4;
74880;PMS5003;63427;49.654;6.596;2023-01-04T12:53:01;2;2;
74880;PMS5003;63427;49.654;6.596;2023-01-04T12:57:51;1;1;
74880;PMS5003;63427;49.654;6.596;2023-01-04T13:00:16;1;1;
74880;PMS5003;63427;49.654;6.596;2023-01-04T13:02:42;3;3;
74880;PMS5003;63427;49.654;6.596;2023-01-04T13:07:38;2;2;
74880;PMS5003;63427;49.654;6.596;2023-01-04T13:09:59;1;1;
74880;PMS5003;63427;49.654;6.596;2023-01-04T13:14:50;1;1;
74880;PMS5003;63427;49.654;6.596;2023-01-04T13:17:16;0;0;
74880;PMS5003;63427;49.654;6.596;2023-01-04T13:19:40;1;1;
74880;PMS5003;63427;49.654;6.596;2023-01-04T13:22:08;1;1;
74880;PMS5003;63427;49.654;6.596;2023-01-04T13:24:32;1;1;
74880;PMS5003;63427;49.654;6.596;2023-01-04T13:27:03;2;2;
74880;PMS5003;63427;49.654;6.596;2023-01-04T13:29:24;2;2;
74880;PMS5003;63427;49.654;6.596;2023-01-04T13:31:51;1;1;
74880;PMS5003;63427;49.654;6.596;2023-01-04T13:34:15;2;2;
74880;PMS5003;63427;49.654;6.596;2023-01-04T13:36:39;1;1;
74880;PMS5003;63427;49.654;6.596;2023-01-04T13:39:05;2;2;
74880;PMS5003;63427;49.654;6.596;2023-01-04T13:41:30;2;2;
74880;PMS5003;63427;49.654;6.596;2023-01-04T13:43:59;1;1;
74880;PMS5003;63427;49.654;6.596;2023-01-04T13:46:21;0;0;
74880;PMS5003;63427;49.654;6.596;2023-01-04T13:48:49;0;0;
74880;PMS5003;63427;49.654;6.596;2023-01-04T13:51:13;0;0;
74880;PMS5003;63427;49.654;6.596;2023-01-04T13:53:38;1;1;
74880;PMS5003;63427;49.654;6.596;2023-01-04T13:56:03;1;1;
74880;PMS5003;63427;49.654;6.596;2023-01-04T13:58:29;3;3;
74880;PMS5003;63427;49.654;6.596;2023-01-04T14:00:55;1;1;
74880;PMS5003;63427;49.654;6.596;2023-01-04T14:03:24;1;1;
74880;PMS5003;63427;49.654;6.596;2023-01-04T14:05:46;2;2;
74880;PMS5003;63427;49.654;6.596;2023-01-04T14:08:11;3;3;
74880;PMS5003;63427;49.654;6.596;2023-01-04T14:10:37;1;1;
74880;PMS5003;63427;49.654;6.596;2023-01-04T14:13:02;2;2;
74880;PMS5003;63427;49.654;6.596;2023-01-04T14:15:28;3;3;
74880;PMS5003;63427;49.654;6.596;2023-01-04T14:17:53;4;4;
74880;PMS5003;63427;49.654;6.596;2023-01-04T14:22:49;1;1;
74880;PMS5003;63427;49.654;6.596;2023-01-04T14:27:36;3;2;
74880;PMS5003;63427;49.654;6.596;2023-01-04T14:32:26;2;2;
74880;PMS5003;63427;49.654;6.596;2023-01-04T14:34:52;1;1;
74880;PMS5003;63427;49.654;6.596;2023-01-04T14:37:17;2;2;
74880;PMS5003;63427;49.654;6.596;2023-01-04T14:39:43;1;1;
74880;PMS5003;63427;49.654;6.596;2023-01-04T14:44:34;2;2;
74880;PMS5003;63427;49.654;6.596;2023-01-04T14:47:00;3;3;
74880;PMS5003;63427;49.654;6.596;2023-01-04T14:49:25;2;2;
74880;PMS5003;63427;49.654;6.596;2023-01-04T14:51:51;1;1;
74880;PMS5003;63427;49.654;6.596;2023-01-04T14:54:16;2;2;
74880;PMS5003;63427;49.654;6.596;2023-01-04T14:56:42;1;1;
74880;PMS5003;63427;49.654;6.596;2023-01-04T14:59:07;3;3;
74880;PMS5003;63427;49.654;6.596;2023-01-04T15:01:32;2;2;
74880;PMS5003;63427;49.654;6.596;2023-01-04T15:03:58;3;3;
74880;PMS5003;63427;49.654;6.596;2023-01-04T15:06:24;2;2;
74880;PMS5003;63427;49.654;6.596;2023-01-04T15:08:49;3;2;
74880;PMS5003;63427;49.654;6.596;2023-01-04T15:11:14;2;2;
74880;PMS5003;63427;49.654;6.596;2023-01-04T15:13:40;1;1;
74880;PMS5003;63427;49.654;6.596;2023-01-04T15:16:06;3;2;
74880;PMS5003;63427;49.654;6.596;2023-01-04T15:18:31;0;0;
74880;PMS5003;63427;49.654;6.596;2023-01-04T15:20:57;2;2;
74880;PMS5003;63427;49.654;6.596;2023-01-04T15:23:22;2;2;
74880;PMS5003;63427;49.654;6.596;2023-01-04T15:25:48;2;2;
74880;PMS5003;63427;49.654;6.596;2023-01-04T15:28:13;3;2;
74880;PMS5003;63427;49.654;6.596;2023-01-04T15:30:39;1;1;
74880;PMS5003;63427;49.654;6.596;2023-01-04T15:33:04;2;2;
74880;PMS5003;63427;49.654;6.596;2023-01-04T15:35:30;2;2;
74880;PMS5003;63427;49.654;6.596;2023-01-04T15:37:55;1;1;
74880;PMS5003;63427;49.654;6.596;2023-01-04T15:40:21;2;2;
74880;PMS5003;63427;49.654;6.596;2023-01-04T15:42:46;0;0;
74880;PMS5003;63427;49.654;6.596;2023-01-04T15:45:12;2;2;
74880;PMS5003;63427;49.654;6.596;2023-01-04T15:47:37;2;2;
74880;PMS5003;63427;49.654;6.596;2023-01-04T15:50:03;1;1;
74880;PMS5003;63427;49.654;6.596;2023-01-04T15:52:28;1;1;
74880;PMS5003;63427;49.654;6.596;2023-01-04T15:54:54;2;2;
74880;PMS5003;63427;49.654;6.596;2023-01-04T15:57:19;1;1;
74880;PMS5003;63427;49.654;6.596;2023-01-04T15:59:45;0;0;
74880;PMS5003;63427;49.654;6.596;2023-01-04T16:02:12;1;1;
74880;PMS5003;63427;49.654;6.596;2023-01-04T16:04:36;2;2;
74880;PMS5003;63427;49.654;6.596;2023-01-04T16:07:02;1;1;
74880;PMS5003;63427;49.654;6.596;2023-01-04T16:09:27;1;1;
74880;PMS5003;63427;49.654;6.596;2023-01-04T16:11:52;0;0;
74880;PMS5003;63427;49.654;6.596;2023-01-04T16:14:18;2;2;
74880;PMS5003;63427;49.654;6.596;2023-01-04T16:16:44;2;2;
74880;PMS5003;63427;49.654;6.596;2023-01-04T16:19:09;2;2;
74880;PMS5003;63427;49.654;6.596;2023-01-04T16:21:35;0;0;
74880;PMS5003;63427;49.654;6.596;2023-01-04T16:24:00;0;0;
74880;PMS5003;63427;49.654;6.596;2023-01-04T16:26:26;0;0;
74880;PMS5003;63427;49.654;6.596;2023-01-04T16:28:53;0;0;
74880;PMS5003;63427;49.654;6.596;2023-01-04T16:31:17;1;1;
74880;PMS5003;63427;49.654;6.596;2023-01-04T16:33:42;0;0;
74880;PMS5003;63427;49.654;6.596;2023-01-04T16:36:10;1;1;
74880;PMS5003;63427;49.654;6.596;2023-01-04T16:38:34;1;1;
74880;PMS5003;63427;49.654;6.596;2023-01-04T16:40:59;2;2;
74880;PMS5003;63427;49.654;6.596;2023-01-04T16:43:24;3;3;
74880;PMS5003;63427;49.654;6.596;2023-01-04T16:45:50;2;2;
74880;PMS5003;63427;49.654;6.596;2023-01-04T16:48:15;2;2;
74880;PMS5003;63427;49.654;6.596;2023-01-04T16:50:41;1;1;
74880;PMS5003;63427;49.654;6.596;2023-01-04T16:53:06;1;1;
74880;PMS5003;63427;49.654;6.596;2023-01-04T16:55:32;2;2;
74880;PMS5003;63427;49.654;6.596;2023-01-04T16:57:57;3;3;
74880;PMS5003;63427;49.654;6.596;2023-01-04T17:00:23;2;2;
74880;PMS5003;63427;49.654;6.596;2023-01-04T17:02:48;1;1;
74880;PMS5003;63427;49.654;6.596;2023-01-04T17:05:14;2;2;
74880;PMS5003;63427;49.654;6.596;2023-01-04T17:07:39;3;3;
74880;PMS5003;63427;49.654;6.596;2023-01-04T17:10:05;1;1;
74880;PMS5003;63427;49.654;6.596;2023-01-04T17:12:30;2;2;